Time;durP1;ratioP1;P1;durP2;ratioP2;P2;SDS_P1;SDS_P2;PMS_P1;PMS_P2;Temp;Humidity;BMP_temperature;BMP_pressure;BME280_temperature;BME280_humidity;BME280_pressure;Samples;Min_cycle;Max_cycle;Signal;HPM_P1;HPM_P2
2022/06/27 00:00:37;;;;;;;9.18;5.15;;;24.50;75.00;;;;;;5016318;28;20212;-72
2022/06/27 00:03:03;;;;;;;5.63;3.80;;;24.50;75.10;;;;;;5015276;28;20207;-71
2022/06/27 00:05:30;;;;;;;6.68;4.65;;;24.40;75.20;;;;;;5021292;28;20219;-72
2022/06/27 00:07:57;;;;;;;6.30;4.30;;;24.40;75.30;;;;;;5025330;28;20573;-72
2022/06/27 00:10:24;;;;;;;6.15;5.40;;;24.40;75.60;;;;;;5032650;28;20211;-72
2022/06/27 00:12:52;;;;;;;5.15;4.03;;;24.40;76.00;;;;;;5017472;28;20227;-72
2022/06/27 00:15:19;;;;;;;6.80;5.40;;;24.30;76.20;;;;;;5024794;28;20539;-72
2022/06/27 00:17:46;;;;;;;6.35;4.75;;;24.30;76.60;;;;;;5024395;28;20253;-72
2022/06/27 00:20:13;;;;;;;8.82;5.57;;;24.30;76.80;;;;;;5027547;28;20690;-72
2022/06/27 00:22:40;;;;;;;6.65;4.55;;;24.30;76.90;;;;;;5029010;28;20639;-71
2022/06/27 00:25:08;;;;;;;5.53;4.38;;;24.20;77.00;;;;;;5021943;28;20223;-71
2022/06/27 00:27:35;;;;;;;7.75;4.80;;;24.20;77.30;;;;;;5026410;28;20637;-71
2022/06/27 00:30:05;;;;;;;8.05;6.43;;;24.10;77.50;;;;;;5021849;28;20235;-70
2022/06/27 00:32:32;;;;;;;4.95;4.55;;;24.10;77.70;;;;;;5020723;28;20234;-70
2022/06/27 00:34:58;;;;;;;5.80;4.97;;;24.00;77.80;;;;;;5028161;28;20203;-71
2022/06/27 00:37:25;;;;;;;6.82;4.85;;;24.00;78.00;;;;;;5023518;28;20206;-70
2022/06/27 00:39:52;;;;;;;8.25;5.80;;;24.00;78.20;;;;;;5018110;28;20211;-70
2022/06/27 00:42:19;;;;;;;6.78;5.45;;;24.00;78.40;;;;;;5020291;28;20681;-71
2022/06/27 00:44:45;;;;;;;7.13;4.97;;;23.90;78.50;;;;;;5025261;28;20610;-70
2022/06/27 00:47:14;;;;;;;6.45;5.30;;;23.90;78.80;;;;;;5030554;28;20214;-72
2022/06/27 00:49:41;;;;;;;12.55;7.20;;;23.80;78.90;;;;;;5024856;28;20652;-71
2022/06/27 00:52:11;;;;;;;8.63;6.82;;;23.80;78.90;;;;;;5018512;28;20218;-71
2022/06/27 00:54:39;;;;;;;8.55;5.45;;;23.80;79.00;;;;;;5021122;28;20234;-71
2022/06/27 00:57:07;;;;;;;6.00;5.25;;;23.70;79.30;;;;;;5020534;28;20219;-70
2022/06/27 00:59:35;;;;;;;10.07;6.70;;;23.70;80.40;;;;;;5015976;28;20211;-70
2022/06/27 01:02:02;;;;;;;6.60;5.93;;;23.60;79.60;;;;;;5016891;28;20208;-71
2022/06/27 01:04:31;;;;;;;6.60;5.35;;;23.60;80.00;;;;;;5012449;28;20199;-71
2022/06/27 01:06:58;;;;;;;7.07;5.32;;;23.60;80.10;;;;;;5013596;28;20679;-71
2022/06/27 01:09:25;;;;;;;5.60;5.10;;;23.50;80.30;;;;;;5024068;28;20206;-71
2022/06/27 01:11:52;;;;;;;7.93;4.90;;;23.50;80.30;;;;;;5028561;28;20578;-72
2022/06/27 01:14:20;;;;;;;5.53;4.95;;;23.50;80.40;;;;;;5016555;28;20231;-71
2022/06/27 01:16:47;;;;;;;9.55;7.32;;;23.40;80.50;;;;;;5015573;28;20338;-71
2022/06/27 01:19:16;;;;;;;6.03;4.95;;;23.40;80.60;;;;;;5013494;28;20215;-73
2022/06/27 01:21:48;;;;;;;5.35;4.85;;;23.40;80.90;;;;;;5014212;28;20632;-71
2022/06/27 01:24:17;;;;;;;5.25;4.75;;;23.30;80.90;;;;;;5019240;28;20204;-71
2022/06/27 01:26:44;;;;;;;7.28;5.60;;;23.40;81.20;;;;;;5030378;28;20210;-72
2022/06/27 01:29:11;;;;;;;6.38;5.25;;;23.30;81.10;;;;;;5019365;28;20226;-72
2022/06/27 01:31:39;;;;;;;6.43;4.85;;;23.30;81.30;;;;;;5015801;28;20211;-71
2022/06/27 01:34:07;;;;;;;5.45;4.95;;;23.30;81.40;;;;;;5019703;28;20707;-72
2022/06/27 01:36:43;;;;;;;6.70;5.10;;;23.20;81.40;;;;;;5018768;28;20246;-72
2022/06/27 01:39:11;;;;;;;10.18;6.38;;;23.20;81.50;;;;;;5020543;28;20229;-72
2022/06/27 01:41:41;;;;;;;5.90;5.25;;;23.20;81.60;;;;;;5022604;28;20214;-72
2022/06/27 01:44:08;;;;;;;6.97;6.20;;;23.20;81.90;;;;;;5025478;28;20214;-72
2022/06/27 01:46:43;;;;;;;7.43;6.10;;;23.10;81.90;;;;;;5026597;28;20217;-72
2022/06/27 01:49:10;;;;;;;7.15;5.95;;;23.10;82.10;;;;;;5032644;28;20202;-72
2022/06/27 01:51:37;;;;;;;7.53;6.40;;;23.10;82.20;;;;;;5014351;28;20211;-72
2022/06/27 01:54:04;;;;;;;7.03;5.75;;;23.10;82.40;;;;;;5011728;28;20590;-72
2022/06/27 01:56:31;;;;;;;5.88;4.57;;;23.10;82.40;;;;;;5024196;28;20215;-72
2022/06/27 01:59:00;;;;;;;6.40;5.20;;;23.00;82.40;;;;;;5020975;28;20207;-72
2022/06/27 02:01:27;;;;;;;6.15;4.70;;;22.90;82.50;;;;;;5023491;28;20210;-72
2022/06/27 02:03:55;;;;;;;6.57;4.82;;;23.00;82.80;;;;;;5017818;28;20728;-72
2022/06/27 02:06:23;;;;;;;5.35;4.38;;;22.90;82.90;;;;;;5013328;28;20219;-72
2022/06/27 02:08:52;;;;;;;6.55;4.53;;;23.00;83.10;;;;;;5023544;28;20208;-72
2022/06/27 02:11:20;;;;;;;8.68;5.97;;;22.90;83.20;;;;;;5027210;28;20211;-72
2022/06/27 02:13:47;;;;;;;7.65;5.32;;;22.90;84.00;;;;;;5016717;28;20229;-72
2022/06/27 02:16:18;;;;;;;7.45;5.80;;;22.90;83.20;;;;;;5012680;28;20239;-72
2022/06/27 02:18:45;;;;;;;8.80;6.63;;;22.90;83.20;;;;;;5016882;28;20664;-71
2022/06/27 02:21:14;;;;;;;5.68;4.55;;;22.90;83.20;;;;;;5015070;28;20700;-72
2022/06/27 02:23:41;;;;;;;5.60;4.72;;;22.90;83.30;;;;;;5012412;28;20213;-70
2022/06/27 02:26:08;;;;;;;5.03;4.53;;;22.80;83.30;;;;;;5015018;28;20210;-70
2022/06/27 02:28:36;;;;;;;6.13;4.70;;;22.80;83.30;;;;;;5023156;28;20597;-71
2022/06/27 02:31:04;;;;;;;6.75;5.13;;;22.80;83.50;;;;;;5018170;28;20215;-72
2022/06/27 02:33:37;;;;;;;8.48;5.78;;;22.80;83.40;;;;;;5023465;28;20222;-72
2022/06/27 02:36:05;;;;;;;9.05;5.57;;;22.80;83.70;;;;;;5016253;28;20215;-72
2022/06/27 02:38:32;;;;;;;9.55;4.97;;;22.80;83.70;;;;;;5012067;28;20200;-71
2022/06/27 02:41:02;;;;;;;11.70;7.82;;;22.80;83.90;;;;;;5013979;28;20253;-71
2022/06/27 02:43:30;;;;;;;6.28;5.32;;;22.80;83.90;;;;;;5024269;28;20558;-72
2022/06/27 02:45:57;;;;;;;7.88;5.95;;;22.80;83.80;;;;;;5027626;28;20299;-72
2022/06/27 02:48:27;;;;;;;5.22;4.20;;;22.80;83.80;;;;;;5018192;28;20265;-72
2022/06/27 02:50:59;;;;;;;9.98;5.47;;;22.90;83.80;;;;;;5019406;28;20202;-71
2022/06/27 02:53:28;;;;;;;7.47;5.13;;;22.90;83.70;;;;;;5022577;28;20226;-71
2022/06/27 02:55:56;;;;;;;6.10;4.40;;;22.90;83.80;;;;;;5012044;28;20211;-71
2022/06/27 02:58:33;;;;;;;8.57;6.93;;;22.90;83.90;;;;;;5027448;28;20206;-72
2022/06/27 03:01:01;;;;;;;7.40;4.63;;;22.90;83.90;;;;;;5018504;28;20202;-72
2022/06/27 03:03:30;;;;;;;7.88;5.63;;;22.90;83.90;;;;;;5010555;28;20565;-72
2022/06/27 03:06:00;;;;;;;7.47;6.32;;;23.00;83.90;;;;;;5021838;28;20241;-71
2022/06/27 03:08:37;;;;;;;5.32;4.63;;;23.00;83.90;;;;;;5024853;28;20203;-70
2022/06/27 03:11:03;;;;;;;13.88;8.95;;;23.10;83.70;;;;;;5029877;28;20678;-71
2022/06/27 03:13:30;;;;;;;12.40;6.10;;;23.10;83.50;;;;;;5017958;28;20230;-71
2022/06/27 03:15:57;;;;;;;7.30;5.60;;;23.10;83.40;;;;;;5017181;28;20211;-72
2022/06/27 03:18:24;;;;;;;7.25;4.80;;;23.20;83.60;;;;;;5016386;28;20779;-71
2022/06/27 03:20:51;;;;;;;7.80;4.82;;;23.20;83.50;;;;;;5017766;28;20210;-73
2022/06/27 03:23:19;;;;;;;6.45;4.90;;;23.30;83.40;;;;;;5021265;28;20215;-71
2022/06/27 03:25:46;;;;;;;11.18;6.22;;;23.30;83.40;;;;;;5015828;28;20211;-71
2022/06/27 03:28:13;;;;;;;5.40;4.63;;;23.30;83.30;;;;;;5019914;28;20219;-71
2022/06/27 03:30:40;;;;;;;4.93;4.43;;;23.30;83.40;;;;;;5014255;28;20648;-71
2022/06/27 03:33:07;;;;;;;5.18;4.65;;;23.40;83.40;;;;;;5017949;28;20211;-71
2022/06/27 03:35:34;;;;;;;7.20;6.47;;;23.50;83.30;;;;;;5013536;28;20227;-72
2022/06/27 03:38:00;;;;;;;5.07;4.10;;;23.50;83.10;;;;;;5015959;28;20352;-72
2022/06/27 03:40:29;;;;;;;7.85;5.30;;;23.60;83.00;;;;;;5015204;28;20218;-72
2022/06/27 03:42:55;;;;;;;5.35;4.00;;;23.60;82.60;;;;;;5020654;28;20206;-72
2022/06/27 03:45:22;;;;;;;5.43;4.38;;;23.60;82.30;;;;;;5023050;28;20211;-72
2022/06/27 03:47:50;;;;;;;8.82;6.65;;;23.70;82.30;;;;;;5012093;28;20214;-72
2022/06/27 03:50:16;;;;;;;7.10;5.22;;;23.70;82.20;;;;;;5023163;28;20303;-73
2022/06/27 03:52:43;;;;;;;5.50;4.28;;;23.80;82.10;;;;;;5016077;28;20692;-72
2022/06/27 03:55:11;;;;;;;9.63;4.72;;;23.90;82.10;;;;;;5023491;28;20237;-71
2022/06/27 03:57:47;;;;;;;8.07;6.70;;;24.00;82.00;;;;;;5024485;28;20222;-72
2022/06/27 04:00:15;;;;;;;4.80;4.00;;;24.00;82.00;;;;;;5010770;28;20577;-72
2022/06/27 04:02:42;;;;;;;17.00;10.02;;;24.00;81.80;;;;;;5010584;28;20211;-71
2022/06/27 04:05:09;;;;;;;6.35;5.50;;;24.10;81.50;;;;;;5014783;28;20719;-71
2022/06/27 04:07:36;;;;;;;7.07;4.80;;;24.00;81.30;;;;;;5023414;28;20297;-72
2022/06/27 04:10:03;;;;;;;7.85;5.28;;;24.00;81.40;;;;;;5022336;28;20710;-71
2022/06/27 04:12:30;;;;;;;4.82;4.32;;;24.00;81.60;;;;;;5024777;28;20207;-70
2022/06/27 04:14:58;;;;;;;6.35;4.07;;;24.00;81.70;;;;;;5023434;28;20710;-72
2022/06/27 04:17:25;;;;;;;7.00;5.85;;;24.00;81.80;;;;;;5016565;28;20238;-71
2022/06/27 04:19:52;;;;;;;14.80;9.25;;;24.00;81.80;;;;;;5024913;28;20215;-72
2022/06/27 04:22:20;;;;;;;5.47;4.10;;;24.00;81.80;;;;;;5029018;28;20215;-73
2022/06/27 04:24:46;;;;;;;11.13;7.65;;;24.10;82.10;;;;;;5027012;28;20699;-72
2022/06/27 04:27:13;;;;;;;10.57;7.35;;;24.10;82.30;;;;;;5020617;28;20237;-73
2022/06/27 04:29:40;;;;;;;8.27;5.82;;;24.10;82.00;;;;;;5021997;28;20223;-73
2022/06/27 04:32:09;;;;;;;10.45;7.53;;;24.20;82.00;;;;;;5022921;28;20203;-74
2022/06/27 04:34:37;;;;;;;5.15;4.63;;;24.20;82.00;;;;;;5015803;28;20505;-73
2022/06/27 04:37:04;;;;;;;6.18;5.03;;;24.20;82.00;;;;;;5016246;28;20238;-74
2022/06/27 04:39:32;;;;;;;10.20;5.57;;;24.30;82.00;;;;;;5023933;28;20668;-73
2022/06/27 04:41:59;;;;;;;9.25;7.30;;;24.30;81.80;;;;;;5014683;28;20241;-73
2022/06/27 04:44:26;;;;;;;5.82;4.93;;;24.30;81.60;;;;;;5019365;28;20660;-72
2022/06/27 04:46:54;;;;;;;6.68;5.30;;;24.40;81.60;;;;;;5013601;28;20203;-71
2022/06/27 04:49:22;;;;;;;5.53;3.58;;;24.50;81.40;;;;;;5019061;28;20688;-71
2022/06/27 04:51:49;;;;;;;5.75;3.97;;;24.50;81.10;;;;;;5023746;28;20284;-72
2022/06/27 04:54:16;;;;;;;6.55;5.60;;;24.50;80.70;;;;;;5016376;28;20750;-72
2022/06/27 04:56:44;;;;;;;6.47;4.90;;;24.60;80.70;;;;;;5013851;28;20208;-71
2022/06/27 04:59:11;;;;;;;4.78;4.20;;;24.60;80.60;;;;;;5014097;28;20598;-71
2022/06/27 05:01:38;;;;;;;12.13;8.27;;;24.70;80.70;;;;;;5022876;28;20211;-71
2022/06/27 05:04:05;;;;;;;5.18;3.95;;;24.70;80.50;;;;;;5014915;28;20206;-71
2022/06/27 05:06:33;;;;;;;10.80;6.85;;;24.70;80.40;;;;;;5013743;28;20208;-70
2022/06/27 05:09:00;;;;;;;5.38;4.20;;;24.80;80.30;;;;;;5021255;28;20220;-71
2022/06/27 05:11:27;;;;;;;10.57;5.10;;;24.80;80.10;;;;;;5013561;28;20209;-71
2022/06/27 05:13:54;;;;;;;5.22;4.30;;;24.80;80.10;;;;;;5019188;28;20208;-72
2022/06/27 05:16:21;;;;;;;4.30;3.90;;;24.80;80.10;;;;;;5023829;28;20239;-70
2022/06/27 05:18:48;;;;;;;4.95;4.00;;;24.90;80.10;;;;;;5011904;28;20675;-71
2022/06/27 05:21:14;;;;;;;8.40;4.40;;;25.00;80.30;;;;;;5017267;28;20222;-72
2022/06/27 05:23:42;;;;;;;4.38;3.85;;;24.90;80.10;;;;;;5012758;28;20210;-71
2022/06/27 05:26:09;;;;;;;5.32;4.20;;;25.00;80.00;;;;;;5017348;28;20566;-72
2022/06/27 05:28:36;;;;;;;5.82;3.28;;;25.00;80.20;;;;;;5024248;28;20207;-71
2022/06/27 05:31:05;;;;;;;7.28;4.28;;;25.00;80.00;;;;;;5014027;28;20218;-72
2022/06/27 05:33:31;;;;;;;4.32;3.92;;;25.10;79.90;;;;;;5013082;28;20215;-72
2022/06/27 05:36:00;;;;;;;3.83;3.47;;;25.10;79.80;;;;;;5012693;28;20231;-72
2022/06/27 05:38:27;;;;;;;6.03;3.97;;;25.20;79.90;;;;;;5016992;28;20210;-74
2022/06/27 05:40:55;;;;;;;4.68;3.97;;;25.30;80.00;;;;;;5012643;28;20207;-72
2022/06/27 05:43:23;;;;;;;8.38;3.70;;;25.30;79.70;;;;;;5020824;28;20210;-72
2022/06/27 05:45:50;;;;;;;5.63;3.55;;;25.40;79.50;;;;;;5023884;28;20541;-71
2022/06/27 05:48:19;;;;;;;5.72;3.80;;;25.40;79.60;;;;;;5016309;28;20674;-74
2022/06/27 05:50:46;;;;;;;7.00;3.72;;;25.50;79.60;;;;;;5022196;28;20217;-72
2022/06/27 05:53:12;;;;;;;5.07;3.35;;;25.60;79.50;;;;;;5019658;28;20288;-72
2022/06/27 05:55:40;;;;;;;6.82;3.25;;;25.70;79.30;;;;;;5015041;28;20272;-70
2022/06/27 05:58:10;;;;;;;4.63;3.45;;;25.70;78.50;;;;;;5016805;28;20310;-72
2022/06/27 06:00:37;;;;;;;3.60;3.17;;;25.80;78.50;;;;;;5013580;28;20698;-72
2022/06/27 06:03:04;;;;;;;4.68;3.85;;;25.90;78.30;;;;;;5017229;28;20258;-72
2022/06/27 06:05:31;;;;;;;5.35;3.95;;;26.00;78.00;;;;;;5012723;28;20207;-72
2022/06/27 06:08:02;;;;;;;4.13;3.58;;;26.00;78.20;;;;;;5011130;28;20199;-71
2022/06/27 06:10:29;;;;;;;5.93;3.38;;;26.10;77.60;;;;;;5013879;28;20200;-72
2022/06/27 06:12:56;;;;;;;5.93;3.60;;;26.20;76.90;;;;;;5014918;28;20208;-71
2022/06/27 06:15:24;;;;;;;5.30;3.10;;;26.20;76.70;;;;;;5014007;28;20243;-71
2022/06/27 06:17:51;;;;;;;3.60;3.30;;;26.20;76.70;;;;;;5017588;28;20239;-75
2022/06/27 06:20:18;;;;;;;5.72;3.30;;;26.20;76.50;;;;;;5012521;28;20211;-73
2022/06/27 06:22:45;;;;;;;4.25;2.95;;;26.30;76.50;;;;;;5021199;28;20560;-73
2022/06/27 06:25:12;;;;;;;3.47;3.17;;;26.30;76.20;;;;;;5017000;28;20544;-73
2022/06/27 06:27:40;;;;;;;5.90;3.55;;;26.30;76.70;;;;;;5014769;28;20215;-73
2022/06/27 06:30:09;;;;;;;5.40;3.22;;;26.40;76.10;;;;;;5012304;28;20261;-72
2022/06/27 06:32:38;;;;;;;4.90;3.20;;;26.50;76.10;;;;;;5013314;28;20242;-74
2022/06/27 06:35:05;;;;;;;3.15;2.90;;;26.50;75.90;;;;;;5016838;28;20688;-72
2022/06/27 06:37:33;;;;;;;7.97;2.85;;;26.60;75.70;;;;;;5012132;28;20211;-71
2022/06/27 06:40:00;;;;;;;2.78;2.58;;;26.70;75.80;;;;;;5012647;28;20259;-70
2022/06/27 06:42:27;;;;;;;4.18;2.80;;;26.70;74.80;;;;;;5018184;28;20230;-72
2022/06/27 06:44:54;;;;;;;2.70;2.50;;;26.80;73.90;;;;;;5025399;28;20207;-70
2022/06/27 06:47:22;;;;;;;4.03;2.72;;;26.80;73.80;;;;;;5017393;28;20207;-72
2022/06/27 06:49:51;;;;;;;4.00;2.67;;;26.90;73.80;;;;;;5024597;28;20576;-72
2022/06/27 06:52:18;;;;;;;4.68;2.65;;;26.90;73.60;;;;;;5019241;28;20634;-72
2022/06/27 06:54:46;;;;;;;3.03;2.72;;;27.00;72.90;;;;;;5011896;28;20219;-72
2022/06/27 06:57:13;;;;;;;3.53;2.33;;;27.10;72.50;;;;;;5010965;28;20211;-71
2022/06/27 06:59:40;;;;;;;4.22;2.55;;;27.10;72.50;;;;;;5016526;28;20231;-68
2022/06/27 07:02:08;;;;;;;3.88;2.40;;;27.20;72.40;;;;;;5023453;28;20579;-71
2022/06/27 07:04:36;;;;;;;2.50;2.30;;;27.20;72.40;;;;;;5020686;28;20227;-70
2022/06/27 07:07:05;;;;;;;2.40;2.20;;;27.30;73.00;;;;;;5019817;28;20269;-70
2022/06/27 07:09:31;;;;;;;2.55;2.35;;;27.40;71.60;;;;;;5013156;28;20215;-69
2022/06/27 07:12:00;;;;;;;4.00;3.47;;;27.40;71.40;;;;;;5024867;28;20645;-70
2022/06/27 07:14:27;;;;;;;2.88;2.58;;;27.50;71.20;;;;;;5017377;28;20293;-72
2022/06/27 07:16:54;;;;;;;4.00;2.60;;;27.60;71.20;;;;;;5017493;28;21114;-70
2022/06/27 07:19:21;;;;;;;3.50;2.60;;;27.60;70.90;;;;;;5018631;28;20217;-70
2022/06/27 07:21:48;;;;;;;2.92;2.38;;;27.70;70.20;;;;;;5019058;28;20297;-72
2022/06/27 07:24:16;;;;;;;3.92;2.83;;;27.80;70.30;;;;;;5020512;28;20230;-72
2022/06/27 07:26:43;;;;;;;4.07;2.75;;;27.90;70.30;;;;;;5011297;28;20211;-72
2022/06/27 07:29:10;;;;;;;5.75;2.75;;;28.00;70.40;;;;;;5017596;28;20253;-73
2022/06/27 07:31:37;;;;;;;4.70;2.90;;;28.00;69.70;;;;;;5018439;28;20210;-73
2022/06/27 07:34:07;;;;;;;6.32;2.85;;;28.10;69.90;;;;;;5010618;28;20293;-72
2022/06/27 07:36:35;;;;;;;2.75;2.53;;;28.10;70.00;;;;;;5018906;28;20722;-73
2022/06/27 07:39:03;;;;;;;3.03;2.35;;;28.20;69.70;;;;;;5010710;28;20208;-72
2022/06/27 07:41:32;;;;;;;3.83;3.08;;;28.30;69.40;;;;;;5010532;28;20207;-71
2022/06/27 07:44:01;;;;;;;4.15;2.30;;;28.50;68.90;;;;;;5011792;28;20211;-72
2022/06/27 07:46:27;;;;;;;2.58;1.95;;;28.60;68.50;;;;;;5016943;28;20290;-71
2022/06/27 07:48:54;;;;;;;3.72;2.35;;;28.60;68.20;;;;;;5020091;28;20524;-70
2022/06/27 07:51:21;;;;;;;4.25;3.65;;;28.70;68.10;;;;;;5012913;28;20207;-72
2022/06/27 07:53:49;;;;;;;5.53;3.17;;;28.80;68.10;;;;;;5011883;28;20644;-72
2022/06/27 07:56:18;;;;;;;2.75;2.20;;;29.00;68.10;;;;;;5019708;28;20599;-72
2022/06/27 07:58:48;;;;;;;2.42;2.17;;;29.00;67.60;;;;;;5014768;28;20211;-70
2022/06/27 08:01:18;;;;;;;4.80;2.60;;;29.10;67.00;;;;;;5021956;28;20207;-72
2022/06/27 08:03:47;;;;;;;4.30;2.20;;;29.10;66.90;;;;;;5011805;28;20560;-72
2022/06/27 08:06:16;;;;;;;2.53;2.22;;;29.20;66.60;;;;;;5013179;28;20224;-71
2022/06/27 08:08:44;;;;;;;4.03;2.33;;;29.20;64.60;;;;;;5018402;28;20207;-71
2022/06/27 08:11:12;;;;;;;4.88;2.33;;;29.20;64.30;;;;;;5012592;28;20302;-70
2022/06/27 08:13:41;;;;;;;3.78;2.30;;;29.10;64.60;;;;;;5021411;28;20210;-71
2022/06/27 08:16:09;;;;;;;3.60;2.40;;;29.30;65.20;;;;;;5012820;28;20274;-71
2022/06/27 08:18:38;;;;;;;4.75;2.10;;;29.30;64.70;;;;;;5014447;28;20579;-71
2022/06/27 08:21:06;;;;;;;4.95;2.05;;;29.40;64.10;;;;;;5018395;28;20332;-70
2022/06/27 08:23:33;;;;;;;3.28;2.53;;;29.50;63.50;;;;;;5011840;28;20261;-70
2022/06/27 08:26:00;;;;;;;3.90;2.30;;;29.60;63.80;;;;;;5020091;28;20218;-71
2022/06/27 08:28:28;;;;;;;2.65;2.45;;;29.70;64.00;;;;;;5013762;28;20212;-71
2022/06/27 08:30:56;;;;;;;3.70;2.00;;;29.80;63.70;;;;;;5013901;28;20746;-70
2022/06/27 08:33:25;;;;;;;3.92;1.92;;;29.90;63.00;;;;;;5018097;28;20211;-72
2022/06/27 08:35:52;;;;;;;3.63;2.20;;;30.00;62.50;;;;;;5012088;28;20235;-72
2022/06/27 08:38:19;;;;;;;3.50;2.00;;;30.10;62.50;;;;;;5011171;28;20290;-73
2022/06/27 08:40:47;;;;;;;5.15;2.22;;;30.20;61.80;;;;;;5014935;28;20210;-72
2022/06/27 08:43:14;;;;;;;3.80;2.17;;;30.20;61.60;;;;;;5011607;28;20207;-72
2022/06/27 08:45:44;;;;;;;4.00;2.25;;;30.20;61.40;;;;;;5013560;28;20883;-74
2022/06/27 08:48:11;;;;;;;2.80;1.88;;;30.30;61.30;;;;;;5011902;28;20503;-74
2022/06/27 08:50:40;;;;;;;4.80;2.40;;;30.20;61.30;;;;;;5018712;28;20215;-72
2022/06/27 08:53:08;;;;;;;6.10;2.15;;;30.20;61.20;;;;;;5015319;28;20294;-73
2022/06/27 08:55:35;;;;;;;3.70;2.40;;;30.20;61.60;;;;;;5013638;28;20254;-72
2022/06/27 08:58:04;;;;;;;5.78;2.33;;;30.20;62.40;;;;;;5014462;28;20671;-73
2022/06/27 09:00:33;;;;;;;3.17;2.25;;;30.30;62.50;;;;;;5011585;28;20207;-73
2022/06/27 09:03:00;;;;;;;2.63;2.15;;;30.40;62.10;;;;;;5015421;28;20638;-73
2022/06/27 09:05:29;;;;;;;2.50;2.30;;;30.50;61.90;;;;;;5019036;28;20715;-73
2022/06/27 09:08:01;;;;;;;4.53;2.03;;;30.60;62.00;;;;;;5011924;28;20707;-69
2022/06/27 09:10:30;;;;;;;3.55;2.38;;;30.70;60.60;;;;;;5021332;28;20214;-71
2022/06/27 09:12:59;;;;;;;2.78;2.08;;;30.90;60.40;;;;;;5014829;28;20652;-72
2022/06/27 09:15:29;;;;;;;3.05;2.15;;;31.10;59.10;;;;;;5017990;28;20234;-71
2022/06/27 09:18:07;;;;;;;4.95;2.30;;;31.10;59.00;;;;;;5010810;28;20338;-69
2022/06/27 09:20:46;;;;;;;2.00;1.80;;;31.20;58.90;;;;;;5014321;28;20199;-68
2022/06/27 09:23:43;;;;;;;7.28;2.25;;;31.30;58.30;;;;;;5015348;28;20207;-71
2022/06/27 09:26:14;;;;;;;4.10;1.92;;;31.40;58.10;;;;;;5010278;28;20314;-70
2022/06/27 09:28:53;;;;;;;5.22;1.88;;;31.60;57.50;;;;;;5012527;28;20710;-69
2022/06/27 09:31:35;;;;;;;3.35;2.05;;;31.60;55.70;;;;;;5012183;28;20203;-67
2022/06/27 09:34:23;;;;;;;5.22;2.60;;;31.60;55.20;;;;;;5015625;28;20218;-68
2022/06/27 09:36:52;;;;;;;7.93;2.90;;;31.60;56.50;;;;;;5014031;28;20215;-68
2022/06/27 09:39:24;;;;;;;2.55;1.83;;;31.70;56.80;;;;;;5010789;28;20242;-68
2022/06/27 09:41:58;;;;;;;2.33;2.13;;;32.00;57.00;;;;;;5016713;28;20686;-71
2022/06/27 09:44:28;;;;;;;2.47;2.28;;;32.20;55.10;;;;;;5026087;28;20327;-71
2022/06/27 09:47:08;;;;;;;3.20;2.35;;;32.40;55.30;;;;;;5015307;28;20295;-70
2022/06/27 09:49:37;;;;;;;2.60;2.40;;;32.50;55.40;;;;;;5017189;28;20206;-68
2022/06/27 09:52:07;;;;;;;2.50;2.30;;;32.60;55.60;;;;;;5009967;28;20211;-71
2022/06/27 09:54:37;;;;;;;3.10;2.30;;;32.60;55.60;;;;;;5011420;28;20600;-71
2022/06/27 09:57:06;;;;;;;3.65;2.55;;;32.50;55.40;;;;;;5015946;28;20215;-71
2022/06/27 09:59:33;;;;;;;2.95;2.20;;;32.40;55.80;;;;;;5015131;28;20652;-70
2022/06/27 10:02:01;;;;;;;4.10;2.30;;;32.20;55.70;;;;;;5009973;28;20219;-71
2022/06/27 10:04:29;;;;;;;2.08;1.98;;;32.10;55.90;;;;;;5013777;28;20210;-70
2022/06/27 10:06:58;;;;;;;3.67;2.05;;;31.90;56.30;;;;;;5010533;28;20596;-70
2022/06/27 10:09:26;;;;;;;5.70;2.30;;;31.80;56.50;;;;;;5014095;28;20310;-70
2022/06/27 10:12:27;;;;;;;2.60;1.70;;;31.60;55.90;;;;;;5014150;28;20573;-72
2022/06/27 10:15:22;;;;;;;1.98;1.88;;;31.50;56.30;;;;;;5015883;28;20228;-71
2022/06/27 10:17:51;;;;;;;3.05;1.70;;;31.50;56.60;;;;;;4971889;28;20238;-71
2022/06/27 10:20:20;;;;;;;3.25;2.20;;;31.60;56.00;;;;;;5011429;28;20596;-70
2022/06/27 10:22:49;;;;;;;4.47;1.92;;;31.60;55.50;;;;;;5016942;28;20198;-70
2022/06/27 10:25:35;;;;;;;2.70;2.25;;;31.60;55.10;;;;;;5016424;28;20211;-72
2022/06/27 10:28:21;;;;;;;2.30;2.10;;;31.70;55.30;;;;;;5015655;28;20299;-70
2022/06/27 10:30:49;;;;;;;2.55;2.30;;;31.80;55.00;;;;;;5009149;28;20202;-73
2022/06/27 10:33:36;;;;;;;2.67;2.25;;;31.80;54.90;;;;;;5014218;28;20237;-70
2022/06/27 10:36:10;;;;;;;4.00;2.10;;;31.80;55.10;;;;;;5008446;28;20698;-71
2022/06/27 10:38:55;;;;;;;2.95;1.83;;;31.70;55.50;;;;;;5013699;28;20318;-70
2022/06/27 10:41:41;;;;;;;3.45;2.40;;;31.60;55.50;;;;;;5016585;28;20281;-70
2022/06/27 10:44:32;;;;;;;5.10;2.20;;;31.60;55.80;;;;;;5011490;28;20214;-70
2022/06/27 10:47:00;;;;;;;6.80;2.30;;;31.70;56.20;;;;;;5009472;28;20560;-71
2022/06/27 10:49:29;;;;;;;4.72;2.72;;;31.70;56.20;;;;;;5009915;28;20203;-71
2022/06/27 10:52:24;;;;;;;8.18;2.33;;;31.80;56.70;;;;;;5023053;28;20207;-71
2022/06/27 10:54:52;;;;;;;3.88;2.30;;;32.00;56.60;;;;;;5011936;28;20246;-73
2022/06/27 10:57:38;;;;;;;5.13;3.55;;;32.20;56.70;;;;;;5013193;28;20270;-72
2022/06/27 11:00:08;;;;;;;3.60;2.38;;;32.40;56.50;;;;;;5012014;28;20227;-71
2022/06/27 11:02:35;;;;;;;3.80;2.45;;;32.70;56.10;;;;;;5009906;28;20219;-71
2022/06/27 11:05:03;;;;;;;3.47;2.42;;;32.80;55.70;;;;;;5012338;28;20207;-71
2022/06/27 11:07:30;;;;;;;2.55;2.35;;;32.80;55.30;;;;;;5014966;28;20198;-71
2022/06/27 11:09:57;;;;;;;4.47;3.03;;;32.90;54.90;;;;;;5010552;28;20241;-71
2022/06/27 11:12:32;;;;;;;4.13;2.75;;;32.90;55.20;;;;;;5014232;28;20218;-71
2022/06/27 11:15:00;;;;;;;2.88;2.30;;;33.00;55.40;;;;;;5014766;28;20202;-72
2022/06/27 11:17:34;;;;;;;5.38;2.22;;;33.00;55.40;;;;;;5009309;28;20253;-71
2022/06/27 11:20:23;;;;;;;2.13;2.03;;;33.10;55.10;;;;;;5006352;28;20672;-70
2022/06/27 11:22:55;;;;;;;7.85;2.50;;;33.10;54.70;;;;;;5003898;28;20231;-71
2022/06/27 11:25:23;;;;;;;5.18;2.35;;;33.00;55.00;;;;;;5008121;28;20202;-71
2022/06/27 11:27:55;;;;;;;3.05;2.40;;;33.20;55.10;;;;;;5006842;28;20211;-71
2022/06/27 11:33:25;;;;;;;2.78;2.53;;;33.40;55.20;;;;;;5013575;28;20244;-71
2022/06/27 11:35:53;;;;;;;2.40;2.20;;;33.60;54.00;;;;;;5008426;28;20203;-72
2022/06/27 11:38:24;;;;;;;3.15;2.47;;;33.70;53.60;;;;;;5008792;28;20210;-71
2022/06/27 11:41:06;;;;;;;4.75;2.10;;;33.80;53.20;;;;;;5010528;28;20203;-71
2022/06/27 11:43:50;;;;;;;6.57;2.30;;;33.70;53.40;;;;;;5011777;28;20762;-71
2022/06/27 11:46:25;;;;;;;5.70;2.30;;;33.60;53.20;;;;;;5009611;28;20203;-68
2022/06/27 11:48:54;;;;;;;2.25;2.05;;;33.60;53.40;;;;;;5009278;28;20214;-70
2022/06/27 11:51:22;;;;;;;3.45;2.15;;;33.60;52.50;;;;;;5014867;28;20564;-70
2022/06/27 11:53:54;;;;;;;4.50;2.22;;;33.50;52.70;;;;;;5014614;28;20628;-69
2022/06/27 11:56:21;;;;;;;3.05;2.42;;;33.40;52.40;;;;;;5008730;28;20220;-69
2022/06/27 11:58:52;;;;;;;2.70;1.80;;;33.40;52.30;;;;;;5007271;28;20218;-70
2022/06/27 12:01:19;;;;;;;2.30;2.00;;;33.40;51.90;;;;;;5009971;28;20578;-68
2022/06/27 12:04:09;;;;;;;2.72;1.70;;;33.40;51.20;;;;;;5010862;28;20214;-68
2022/06/27 12:06:44;;;;;;;2.60;2.08;;;33.40;51.50;;;;;;5008727;28;20238;-69
2022/06/27 12:09:11;;;;;;;2.38;1.80;;;33.40;51.60;;;;;;5008829;28;20289;-69
2022/06/27 12:11:47;;;;;;;2.35;1.83;;;33.30;51.10;;;;;;5007664;28;20290;-69
2022/06/27 12:14:14;;;;;;;3.83;2.20;;;33.30;51.10;;;;;;5005549;28;20742;-69
2022/06/27 12:16:50;;;;;;;3.28;1.70;;;33.30;50.70;;;;;;5008868;28;20979;-69
2022/06/27 12:19:18;;;;;;;2.10;1.88;;;33.30;50.40;;;;;;5009262;28;20214;-70
2022/06/27 12:21:46;;;;;;;2.88;1.88;;;33.20;50.10;;;;;;5007761;28;20214;-71
2022/06/27 12:24:13;;;;;;;2.00;1.80;;;33.20;50.20;;;;;;5007258;28;20725;-69
2022/06/27 12:26:40;;;;;;;3.33;1.98;;;33.30;50.40;;;;;;5013673;28;20206;-70
2022/06/27 12:29:08;;;;;;;2.30;1.80;;;33.30;50.60;;;;;;5010669;28;20668;-71
2022/06/27 12:31:35;;;;;;;3.03;1.77;;;33.30;50.70;;;;;;5007547;28;20503;-70
2022/06/27 12:34:03;;;;;;;2.80;2.20;;;33.30;50.70;;;;;;5022908;28;20222;-70
2022/06/27 12:36:32;;;;;;;2.17;1.95;;;33.30;50.70;;;;;;5020790;28;20227;-70
2022/06/27 12:39:00;;;;;;;3.13;1.83;;;33.40;50.70;;;;;;5015057;28;20211;-71
2022/06/27 12:41:27;;;;;;;2.28;2.05;;;33.40;50.70;;;;;;5016362;28;20211;-70
2022/06/27 12:43:54;;;;;;;5.95;2.25;;;33.50;50.60;;;;;;5028584;28;20210;-70
2022/06/27 12:46:21;;;;;;;4.60;2.63;;;33.50;50.80;;;;;;5013613;28;20571;-70
2022/06/27 12:48:48;;;;;;;2.03;1.75;;;33.40;51.00;;;;;;5012435;28;20433;-70
2022/06/27 12:51:16;;;;;;;3.13;2.20;;;33.40;51.40;;;;;;5014674;28;20218;-71
2022/06/27 12:53:44;;;;;;;2.22;1.83;;;33.50;51.30;;;;;;5013123;28;20253;-70
2022/06/27 12:56:12;;;;;;;5.68;2.20;;;33.50;51.40;;;;;;5011937;28;20289;-70
2022/06/27 12:58:39;;;;;;;4.57;2.03;;;33.50;51.60;;;;;;5020169;28;20207;-70